createdAt,value
2022-09-15T00:00:29.495Z,20.57
2022-09-15T00:02:56.234Z,20.64
2022-09-15T00:05:23.007Z,20.68
2022-09-15T00:07:49.570Z,20.72
2022-09-15T00:10:17.411Z,20.75
2022-09-15T00:12:44.434Z,20.77
2022-09-15T00:15:14.810Z,20.81
2022-09-15T00:17:43.044Z,20.81
2022-09-15T00:20:10.538Z,20.66
2022-09-15T00:22:37.407Z,20.68
2022-09-15T00:25:04.238Z,20.68
2022-09-15T00:27:32.124Z,20.69
2022-09-15T00:29:58.784Z,20.69
2022-09-15T00:32:25.679Z,20.72
2022-09-15T00:34:53.486Z,20.66
2022-09-15T00:37:20.908Z,20.76
2022-09-15T00:39:47.749Z,20.77
2022-09-15T00:42:19.656Z,20.77
2022-09-15T00:44:50.062Z,20.66
2022-09-15T00:47:20.017Z,20.77
2022-09-15T00:49:52.473Z,20.73
2022-09-15T00:52:31.818Z,20.72
2022-09-15T00:55:32.095Z,20.63
2022-09-15T00:58:04.046Z,20.66
2022-09-15T01:00:30.672Z,20.57
2022-09-15T01:02:57.553Z,20.43
2022-09-15T01:05:30.115Z,20.51
2022-09-15T01:08:01.943Z,20.51
2022-09-15T01:10:34.712Z,20.50
2022-09-15T01:13:07.153Z,20.46
2022-09-15T01:15:36.537Z,20.46
2022-09-15T01:18:22.021Z,20.43
2022-09-15T01:21:06.347Z,20.33
2022-09-15T01:23:35.861Z,20.35
2022-09-15T01:26:18.738Z,20.28
2022-09-15T01:28:45.267Z,20.30
2022-09-15T01:31:23.428Z,20.29
2022-09-15T01:34:16.690Z,20.32
2022-09-15T01:36:54.251Z,20.30
2022-09-15T01:39:27.196Z,20.37
2022-09-15T01:42:07.818Z,20.23
2022-09-15T01:44:40.396Z,20.05
2022-09-15T01:47:09.950Z,19.98
2022-09-15T01:49:44.465Z,19.99
2022-09-15T01:52:11.337Z,19.99
2022-09-15T01:54:48.797Z,19.97
2022-09-15T01:57:22.723Z,20.07
2022-09-15T01:59:50.413Z,20.06
2022-09-15T02:02:23.994Z,20.03
2022-09-15T02:04:55.399Z,19.96
2022-09-15T02:07:45.403Z,19.99
2022-09-15T02:10:34.559Z,19.97
2022-09-15T02:13:16.899Z,19.98
2022-09-15T02:15:48.414Z,19.97
2022-09-15T02:18:23.804Z,19.85
2022-09-15T02:20:54.861Z,19.90
2022-09-15T02:23:27.611Z,19.87
2022-09-15T02:25:59.841Z,19.81
2022-09-15T02:28:30.074Z,19.78
2022-09-15T02:30:59.212Z,19.77
2022-09-15T02:33:32.366Z,19.75
2022-09-15T02:35:59.812Z,19.73
2022-09-15T02:38:29.577Z,19.80
2022-09-15T02:40:57.022Z,19.76
2022-09-15T02:43:23.651Z,19.76
2022-09-15T02:45:50.764Z,19.74
2022-09-15T02:48:17.672Z,19.72
2022-09-15T02:50:44.242Z,19.73
2022-09-15T02:53:10.741Z,19.73
2022-09-15T02:55:37.378Z,19.59
2022-09-15T02:58:04.182Z,19.71
2022-09-15T03:00:31.157Z,19.70
2022-09-15T03:02:58.333Z,19.73
2022-09-15T03:05:28.730Z,19.71
2022-09-15T03:07:56.125Z,19.70
2022-09-15T03:10:24.476Z,19.70
2022-09-15T03:12:53.802Z,19.71
2022-09-15T03:15:25.529Z,19.66
2022-09-15T03:17:53.465Z,19.59
2022-09-15T03:20:23.556Z,19.52
2022-09-15T03:22:50.629Z,19.48
2022-09-15T03:25:18.064Z,19.46
2022-09-15T03:27:44.972Z,19.44
2022-09-15T03:30:12.300Z,19.40
2022-09-15T03:32:38.900Z,19.41
2022-09-15T03:35:06.847Z,19.34
2022-09-15T03:37:33.835Z,19.33
2022-09-15T03:40:00.466Z,19.35
2022-09-15T03:42:27.144Z,19.34
2022-09-15T03:44:53.693Z,19.32
2022-09-15T03:47:20.400Z,19.34
2022-09-15T03:49:47.564Z,19.31
2022-09-15T03:52:14.114Z,19.25
2022-09-15T03:54:40.726Z,19.29
2022-09-15T03:57:07.646Z,19.30
2022-09-15T03:59:34.333Z,19.32
2022-09-15T04:02:00.939Z,19.29
2022-09-15T04:04:27.502Z,19.27
2022-09-15T04:06:54.089Z,19.26
2022-09-15T04:09:21.510Z,19.22
2022-09-15T04:11:48.185Z,19.30
2022-09-15T04:14:14.824Z,19.28
2022-09-15T04:16:41.557Z,19.31
2022-09-15T04:19:08.429Z,19.31
2022-09-15T04:21:35.042Z,19.31
2022-09-15T04:24:01.867Z,19.21
2022-09-15T04:26:31.363Z,19.19
2022-09-15T04:29:03.075Z,19.18
2022-09-15T04:31:31.763Z,19.19
2022-09-15T04:33:58.552Z,19.15
2022-09-15T04:36:28.236Z,19.13
2022-09-15T04:38:56.222Z,19.03
2022-09-15T04:41:24.471Z,18.78
2022-09-15T04:43:51.551Z,18.86
2022-09-15T04:46:18.557Z,18.85
2022-09-15T04:48:46.329Z,18.93
2022-09-15T04:51:15.923Z,19.01
2022-09-15T04:53:43.490Z,19.08
2022-09-15T04:56:15.836Z,19.09
2022-09-15T04:58:45.249Z,19.04
2022-09-15T05:01:14.894Z,18.99
2022-09-15T05:03:42.293Z,19.02
2022-09-15T05:06:11.310Z,19.02
2022-09-15T05:08:38.424Z,19.05
2022-09-15T05:11:08.306Z,19.10
2022-09-15T05:13:35.909Z,19.12
2022-09-15T05:16:29.453Z,19.15
2022-09-15T05:18:58.485Z,19.11
2022-09-15T05:21:26.764Z,19.15
2022-09-15T05:23:53.982Z,19.12
2022-09-15T05:26:23.582Z,19.07
2022-09-15T05:28:50.270Z,19.07
2022-09-15T05:31:23.831Z,19.07
2022-09-15T05:33:51.524Z,19.09
2022-09-15T05:36:20.280Z,19.07
2022-09-15T05:38:47.181Z,18.99
2022-09-15T05:41:16.914Z,19.00
2022-09-15T05:43:45.088Z,19.00
2022-09-15T05:46:12.535Z,18.99
2022-09-15T05:48:39.506Z,18.95
2022-09-15T05:51:06.786Z,19.05
2022-09-15T05:53:35.484Z,19.03
2022-09-15T05:56:07.638Z,18.99
2022-09-15T05:58:34.583Z,19.06
2022-09-15T06:01:07.965Z,19.13
2022-09-15T06:03:35.667Z,19.14
2022-09-15T06:06:03.851Z,19.18
2022-09-15T06:08:35.451Z,19.26
2022-09-15T06:11:07.890Z,19.28
2022-09-15T06:13:34.612Z,19.37
2022-09-15T06:16:07.223Z,19.44
2022-09-15T06:18:37.088Z,19.48
2022-09-15T06:21:05.362Z,19.48
2022-09-15T06:23:32.456Z,19.32
2022-09-15T06:26:06.867Z,19.32
2022-09-15T06:28:33.843Z,19.48
2022-09-15T06:31:00.352Z,19.56
2022-09-15T06:33:27.587Z,19.60
2022-09-15T06:35:54.428Z,19.65
2022-09-15T06:38:21.038Z,19.71
2022-09-15T06:40:58.291Z,19.74
2022-09-15T06:43:25.942Z,19.82
2022-09-15T06:45:52.482Z,19.85
2022-09-15T06:48:25.060Z,19.90
2022-09-15T06:50:55.647Z,19.93
2022-09-15T06:53:22.431Z,19.92
2022-09-15T06:55:49.072Z,19.94
2022-09-15T06:58:15.820Z,19.97
2022-09-15T07:00:43.070Z,19.91
2022-09-15T07:03:09.858Z,19.95
2022-09-15T07:05:36.608Z,19.99
2022-09-15T07:08:03.496Z,19.96
2022-09-15T07:10:29.970Z,20.01
2022-09-15T07:12:56.706Z,20.04
2022-09-15T07:15:25.902Z,20.11
2022-09-15T07:17:52.498Z,20.21
2022-09-15T07:20:18.987Z,20.25
2022-09-15T07:22:45.582Z,20.27
2022-09-15T07:25:12.084Z,20.28
2022-09-15T07:27:38.753Z,20.30
2022-09-15T07:30:08.545Z,20.37
2022-09-15T07:32:35.280Z,20.41
2022-09-15T07:35:02.313Z,20.41
2022-09-15T07:37:28.935Z,20.48
2022-09-15T07:39:55.533Z,20.55
2022-09-15T07:42:22.128Z,20.52
2022-09-15T07:44:48.652Z,20.64
2022-09-15T07:47:15.210Z,20.72
2022-09-15T07:49:42.148Z,20.75
2022-09-15T07:52:09.168Z,20.83
2022-09-15T07:54:35.936Z,20.92
2022-09-15T07:57:02.563Z,20.86
2022-09-15T07:59:29.092Z,20.95
2022-09-15T08:01:55.679Z,21.01
2022-09-15T08:04:22.319Z,21.10
2022-09-15T08:06:49.056Z,21.03
2022-09-15T08:09:17.636Z,21.28
2022-09-15T08:11:44.384Z,21.35
2022-09-15T08:14:11.104Z,21.51
2022-09-15T08:16:39.174Z,21.44
2022-09-15T08:19:06.434Z,21.42
2022-09-15T08:21:33.030Z,21.43
2022-09-15T08:24:01.210Z,21.49
2022-09-15T08:26:29.356Z,21.45
2022-09-15T08:28:55.949Z,21.44
2022-09-15T08:31:24.303Z,21.52
2022-09-15T08:33:53.049Z,21.56
2022-09-15T08:36:20.181Z,21.61
2022-09-15T08:38:47.539Z,21.67
2022-09-15T08:41:15.887Z,21.65
2022-09-15T08:43:48.141Z,21.77
2022-09-15T08:46:22.421Z,21.80
2022-09-15T08:49:02.769Z,21.96
2022-09-15T08:51:39.825Z,21.92
2022-09-15T08:54:14.344Z,21.94
2022-09-15T08:56:43.090Z,21.90
2022-09-15T08:59:14.830Z,21.86
2022-09-15T09:01:59.937Z,21.90
2022-09-15T09:04:37.128Z,21.96
2022-09-15T09:07:18.660Z,22.06
2022-09-15T09:10:34.802Z,22.09
2022-09-15T09:13:07.338Z,22.00
2022-09-15T09:16:19.114Z,22.10
2022-09-15T09:19:11.833Z,22.18
2022-09-15T09:21:43.078Z,22.30
2022-09-15T09:24:17.177Z,22.42
2022-09-15T09:26:49.620Z,22.50
2022-09-15T09:29:18.752Z,22.49
2022-09-15T09:31:50.845Z,22.52
2022-09-15T09:34:29.181Z,22.50
2022-09-15T09:37:00.935Z,22.46
2022-09-15T09:39:28.272Z,22.58
2022-09-15T09:41:55.425Z,22.68
2022-09-15T09:44:31.759Z,22.60
2022-09-15T09:47:00.434Z,22.47
2022-09-15T09:49:49.512Z,22.49
2022-09-15T09:52:41.098Z,22.56
2022-09-15T09:55:23.478Z,22.49
2022-09-15T09:57:50.804Z,22.59
2022-09-15T10:00:38.382Z,22.67
2022-09-15T10:03:26.221Z,22.73
2022-09-15T10:06:04.475Z,22.81
2022-09-15T10:08:31.657Z,22.94
2022-09-15T10:11:04.811Z,22.91
2022-09-15T10:13:32.871Z,23.01
2022-09-15T10:16:02.146Z,23.09
2022-09-15T10:18:32.189Z,23.10
2022-09-15T10:21:00.485Z,23.12
2022-09-15T10:23:32.602Z,23.21
2022-09-15T10:26:21.955Z,23.25
2022-09-15T10:29:14.633Z,23.43
2022-09-15T10:31:42.278Z,23.43
2022-09-15T10:34:30.614Z,23.49
2022-09-15T10:37:14.363Z,23.58
2022-09-15T10:39:52.227Z,23.62
2022-09-15T10:42:33.877Z,23.79
2022-09-15T10:45:07.967Z,23.86
2022-09-15T10:47:43.529Z,23.94
2022-09-15T10:50:45.086Z,23.84
2022-09-15T10:53:57.221Z,23.77
2022-09-15T10:56:29.593Z,23.80
2022-09-15T10:59:32.153Z,23.84
2022-09-15T11:02:11.065Z,23.99
2022-09-15T11:04:46.771Z,24.07
2022-09-15T11:07:31.837Z,24.18
2022-09-15T11:10:52.845Z,24.21
2022-09-15T11:13:50.438Z,24.22
2022-09-15T11:16:41.476Z,24.28
2022-09-15T11:19:19.048Z,24.45
2022-09-15T11:21:49.891Z,24.45
2022-09-15T11:24:46.850Z,24.52
2022-09-15T11:27:22.726Z,24.55
2022-09-15T11:29:52.301Z,24.66
2022-09-15T11:32:27.781Z,24.71
2022-09-15T11:35:31.869Z,24.78
2022-09-15T11:38:29.343Z,24.75
2022-09-15T11:41:22.813Z,24.70
2022-09-15T11:44:19.778Z,24.63
2022-09-15T11:47:05.027Z,24.71
2022-09-15T11:49:39.243Z,24.83
2022-09-15T11:52:33.617Z,24.82
2022-09-15T11:55:07.212Z,24.86
2022-09-15T11:57:44.471Z,25.07
2022-09-15T12:00:14.572Z,25.23
2022-09-15T12:02:51.496Z,25.17
2022-09-15T12:05:24.022Z,25.29
2022-09-15T12:08:02.566Z,25.32
2022-09-15T12:10:39.697Z,25.32
2022-09-15T12:13:07.772Z,25.37
2022-09-15T12:15:34.536Z,25.36
2022-09-15T12:18:06.647Z,25.39
2022-09-15T12:20:53.946Z,25.41
2022-09-15T12:23:34.728Z,25.48
2022-09-15T12:26:14.681Z,25.45
2022-09-15T12:28:47.363Z,25.49
2022-09-15T12:31:23.364Z,25.52
2022-09-15T12:33:57.395Z,25.61
2022-09-15T12:36:39.283Z,25.68
2022-09-15T12:39:30.409Z,25.65
2022-09-15T12:41:59.762Z,25.63
2022-09-15T12:44:30.856Z,25.58
2022-09-15T12:46:58.946Z,25.55
2022-09-15T12:49:33.689Z,25.59
2022-09-15T12:52:03.212Z,25.66
2022-09-15T12:54:33.083Z,25.74
2022-09-15T12:57:00.516Z,25.81
2022-09-15T12:59:28.415Z,25.86
2022-09-15T13:01:56.250Z,25.95
2022-09-15T13:04:28.405Z,26.05
2022-09-15T13:07:16.491Z,26.06
2022-09-15T13:10:15.540Z,26.14
2022-09-15T13:12:51.882Z,26.18
2022-09-15T13:15:20.410Z,26.25
2022-09-15T13:17:47.649Z,26.27
2022-09-15T13:20:23.997Z,26.25
2022-09-15T13:22:56.296Z,26.18
2022-09-15T13:25:28.268Z,26.15
2022-09-15T13:28:03.056Z,26.21
2022-09-15T13:30:53.787Z,26.38
2022-09-15T13:39:47.926Z,26.63
2022-09-15T13:42:20.458Z,26.71
2022-09-15T13:45:07.246Z,26.74
2022-09-15T13:47:42.682Z,26.79
2022-09-15T13:50:25.705Z,26.84
2022-09-15T13:53:02.134Z,26.83
2022-09-15T13:55:38.597Z,26.80
2022-09-15T14:01:07.758Z,27.05
2022-09-15T14:03:53.881Z,27.13
2022-09-15T14:06:22.870Z,27.12
2022-09-15T14:08:55.706Z,27.10
2022-09-15T14:11:28.285Z,27.13
2022-09-15T14:13:56.728Z,27.19
2022-09-15T14:16:30.984Z,27.24
2022-09-15T14:18:58.618Z,27.33
2022-09-15T14:21:27.607Z,27.36
2022-09-15T14:23:58.649Z,27.42
2022-09-15T14:26:28.909Z,27.45
2022-09-15T14:29:03.156Z,27.38
2022-09-15T14:31:41.027Z,27.40
2022-09-15T14:34:21.658Z,27.39
2022-09-15T14:37:17.504Z,27.47
2022-09-15T14:39:57.396Z,27.45
2022-09-15T14:42:44.664Z,27.53
2022-09-15T14:48:07.106Z,27.47
2022-09-15T14:50:34.184Z,27.55
2022-09-15T14:53:07.834Z,27.46
2022-09-15T14:55:43.518Z,27.37
2022-09-15T14:58:32.383Z,27.34
2022-09-15T15:01:24.034Z,27.25
2022-09-15T15:04:10.382Z,27.24
2022-09-15T15:06:57.640Z,27.33
2022-09-15T15:09:33.102Z,27.32
2022-09-15T15:12:06.941Z,27.38
2022-09-15T15:14:35.437Z,27.38
2022-09-15T15:17:08.080Z,27.39
2022-09-15T15:19:39.477Z,27.42
2022-09-15T15:22:14.825Z,27.41
2022-09-15T15:24:45.068Z,27.35
2022-09-15T15:27:41.098Z,27.36
2022-09-15T15:30:32.682Z,27.30
2022-09-15T15:33:28.525Z,27.35
2022-09-15T15:36:02.664Z,27.34
2022-09-15T15:38:33.097Z,27.29
2022-09-15T15:41:02.317Z,27.27
2022-09-15T15:43:29.295Z,27.25
2022-09-15T15:46:01.031Z,27.25
2022-09-15T15:48:29.530Z,27.24
2022-09-15T15:50:58.660Z,27.25
2022-09-15T15:53:25.841Z,27.19
2022-09-15T15:55:55.056Z,27.16
2022-09-15T15:58:22.576Z,27.20
2022-09-15T16:00:55.003Z,27.16
2022-09-15T16:03:23.132Z,27.12
2022-09-15T16:05:57.201Z,27.07
2022-09-15T16:08:31.217Z,27.04
2022-09-15T16:11:00.516Z,26.93
2022-09-15T16:13:27.498Z,26.89
2022-09-15T16:15:57.990Z,26.87
2022-09-15T16:18:25.075Z,26.83
2022-09-15T16:20:54.267Z,26.82
2022-09-15T16:23:22.787Z,26.79
2022-09-15T16:26:00.374Z,26.83
2022-09-15T16:28:28.881Z,26.81
2022-09-15T16:30:56.781Z,26.78
2022-09-15T16:33:25.038Z,26.75
2022-09-15T16:36:06.763Z,26.73
2022-09-15T16:38:34.969Z,26.68
2022-09-15T16:41:02.901Z,26.63
2022-09-15T16:43:29.549Z,26.51
2022-09-15T16:45:56.390Z,26.39
2022-09-15T16:48:23.200Z,26.17
2022-09-15T16:51:16.821Z,25.96
2022-09-15T16:53:39.371Z,25.63
2022-09-15T16:56:07.534Z,25.48
2022-09-15T16:58:34.243Z,25.43
2022-09-15T17:01:00.915Z,25.36
2022-09-15T17:03:29.098Z,24.94
2022-09-15T17:05:58.769Z,24.72
2022-09-15T17:08:29.572Z,24.51
2022-09-15T17:10:58.247Z,24.43
2022-09-15T17:13:29.509Z,24.34
2022-09-15T17:15:58.012Z,24.33
2022-09-15T17:18:25.057Z,24.37
2022-09-15T17:20:52.088Z,24.45
2022-09-15T17:23:31.687Z,24.47
2022-09-15T17:26:01.150Z,24.47
2022-09-15T17:28:30.057Z,24.46
2022-09-15T17:31:02.454Z,24.52
2022-09-15T17:33:30.999Z,24.46
2022-09-15T17:35:58.112Z,24.37
2022-09-15T17:38:25.084Z,24.35
2022-09-15T17:40:53.031Z,24.34
2022-09-15T17:43:28.877Z,24.25
2022-09-15T17:45:56.374Z,24.26
2022-09-15T17:48:23.252Z,24.30
2022-09-15T17:50:50.410Z,24.25
2022-09-15T17:53:26.836Z,24.21
2022-09-15T17:55:55.424Z,24.22
2022-09-15T17:58:22.933Z,24.21
2022-09-15T18:00:50.472Z,24.15
2022-09-15T18:03:27.746Z,24.11
2022-09-15T18:05:56.399Z,24.14
2022-09-15T18:08:23.023Z,23.82
2022-09-15T18:10:50.694Z,23.73
2022-09-15T18:13:27.343Z,23.55
2022-09-15T18:15:54.969Z,23.53
2022-09-15T18:18:24.502Z,23.52
2022-09-15T18:20:53.114Z,23.52
2022-09-15T18:23:22.144Z,23.51
2022-09-15T18:25:50.070Z,23.46
2022-09-15T18:28:18.132Z,23.46
2022-09-15T18:30:49.899Z,23.43
2022-09-15T18:33:20.159Z,23.33
2022-09-15T18:35:49.316Z,23.31
2022-09-15T18:38:16.299Z,23.34
2022-09-15T18:40:48.994Z,23.27
2022-09-15T18:43:16.637Z,23.11
2022-09-15T18:45:43.403Z,23.16
2022-09-15T18:48:12.741Z,23.27
2022-09-15T18:50:40.788Z,23.22
2022-09-15T18:53:07.701Z,23.32
2022-09-15T18:55:34.593Z,23.31
2022-09-15T18:58:02.393Z,23.28
2022-09-15T19:00:29.744Z,23.27
2022-09-15T19:03:01.032Z,23.25
2022-09-15T19:05:29.485Z,23.17
2022-09-15T19:07:56.856Z,22.99
2022-09-15T19:10:24.570Z,23.00
2022-09-15T19:12:51.107Z,22.84
2022-09-15T19:15:17.993Z,22.80
2022-09-15T19:17:45.069Z,22.80
2022-09-15T19:20:15.016Z,22.68
2022-09-15T19:22:42.550Z,22.70
2022-09-15T19:25:11.322Z,22.62
2022-09-15T19:27:38.673Z,22.44
2022-09-15T19:30:07.617Z,22.50
2022-09-15T19:32:34.567Z,22.23
2022-09-15T19:35:01.271Z,22.04
2022-09-15T19:37:30.629Z,22.15
2022-09-15T19:39:57.351Z,22.08
2022-09-15T19:42:23.970Z,21.96
2022-09-15T19:44:50.570Z,22.05
2022-09-15T19:47:17.133Z,22.09
2022-09-15T19:49:43.750Z,22.19
2022-09-15T19:52:10.531Z,22.26
2022-09-15T19:54:37.129Z,22.30
2022-09-15T19:57:04.177Z,22.34
2022-09-15T19:59:31.834Z,22.36
2022-09-15T20:02:00.163Z,22.32
2022-09-15T20:04:28.100Z,22.40
2022-09-15T20:06:54.998Z,22.40
2022-09-15T20:09:21.688Z,22.24
2022-09-15T20:11:48.236Z,22.25
2022-09-15T20:14:14.883Z,22.37
2022-09-15T20:16:41.470Z,22.20
2022-09-15T20:19:08.235Z,22.06
2022-09-15T20:21:53.242Z,22.09
2022-09-15T20:24:21.004Z,22.14
2022-09-15T20:26:47.922Z,22.20
2022-09-15T20:29:14.491Z,22.22
2022-09-15T20:31:41.393Z,22.18
2022-09-15T20:34:08.492Z,22.23
2022-09-15T20:36:38.700Z,22.29
2022-09-15T20:39:09.399Z,22.33
2022-09-15T20:41:36.935Z,22.32
2022-09-15T20:44:03.734Z,22.33
2022-09-15T20:46:31.327Z,22.28
2022-09-15T20:48:57.954Z,22.26
2022-09-15T20:51:27.925Z,22.08
2022-09-15T20:53:56.322Z,21.86
2022-09-15T20:56:25.578Z,21.89
2022-09-15T20:58:58.553Z,21.72
2022-09-15T21:01:37.607Z,21.72
2022-09-15T21:04:05.477Z,21.77
2022-09-15T21:06:32.829Z,21.79
2022-09-15T21:08:59.512Z,21.88
2022-09-15T21:11:28.033Z,21.87
2022-09-15T21:13:55.519Z,21.84
2022-09-15T21:16:24.578Z,21.83
2022-09-15T21:18:52.501Z,21.80
2022-09-15T21:21:24.638Z,21.84
2022-09-15T21:23:56.512Z,21.84
2022-09-15T21:26:28.177Z,21.71
2022-09-15T21:28:56.019Z,21.58
2022-09-15T21:31:31.273Z,21.54
2022-09-15T21:33:58.327Z,21.49
2022-09-15T21:36:29.929Z,21.54
2022-09-15T21:38:58.927Z,21.54
2022-09-15T21:41:29.058Z,21.38
2022-09-15T21:43:58.018Z,21.48
2022-09-15T21:46:26.888Z,21.52
2022-09-15T21:48:55.571Z,21.47
2022-09-15T21:51:25.063Z,21.45
2022-09-15T21:53:56.730Z,21.53
2022-09-15T21:56:27.292Z,21.59
2022-09-15T21:58:54.576Z,21.59
2022-09-15T22:01:28.103Z,21.59
2022-09-15T22:04:00.114Z,21.55
2022-09-15T22:06:31.785Z,21.50
2022-09-15T22:09:01.070Z,21.48
2022-09-15T22:11:27.709Z,21.50
2022-09-15T22:13:54.381Z,21.42
2022-09-15T22:16:23.913Z,21.33
2022-09-15T22:18:51.705Z,21.09
2022-09-15T22:21:31.424Z,21.12
2022-09-15T22:23:59.582Z,21.02
2022-09-15T22:26:29.428Z,21.09
2022-09-15T22:28:58.136Z,21.06
2022-09-15T22:31:25.977Z,21.13
2022-09-15T22:33:52.962Z,21.17
2022-09-15T22:36:29.675Z,21.25
2022-09-15T22:39:07.699Z,21.14
2022-09-15T22:41:37.311Z,20.98
2022-09-15T22:44:04.428Z,21.00
2022-09-15T22:46:31.551Z,21.08
2022-09-15T22:48:58.351Z,21.05
2022-09-15T22:51:25.156Z,20.79
2022-09-15T22:53:56.951Z,20.71
2022-09-15T22:56:25.926Z,20.69
2022-09-15T22:58:53.114Z,20.71
2022-09-15T23:01:22.666Z,20.81
2022-09-15T23:04:00.449Z,20.92
2022-09-15T23:06:31.341Z,20.93
2022-09-15T23:09:00.701Z,20.91
2022-09-15T23:11:28.915Z,20.91
2022-09-15T23:13:56.261Z,20.95
2022-09-15T23:16:24.275Z,21.04
2022-09-15T23:18:51.514Z,20.94
2022-09-15T23:21:18.341Z,20.81
2022-09-15T23:23:47.601Z,20.79
2022-09-15T23:26:17.294Z,20.78
2022-09-15T23:28:44.003Z,20.78
2022-09-15T23:31:12.868Z,20.77
2022-09-15T23:33:40.008Z,20.79
2022-09-15T23:36:08.920Z,20.83
2022-09-15T23:38:39.778Z,20.88
2022-09-15T23:41:07.620Z,20.87
2022-09-15T23:43:34.666Z,20.89
2022-09-15T23:46:01.698Z,20.80
2022-09-15T23:48:28.640Z,20.82
2022-09-15T23:50:55.277Z,20.78
2022-09-15T23:53:21.848Z,20.76
2022-09-15T23:55:48.622Z,20.74
2022-09-15T23:58:15.126Z,20.73
